Portada
METAR-TAF:

METAR-TAF

Aeropuertos :

Seyresse

Dax, Francia

latitud: 43-41N, longitud: 001-04W, altitud: 32 m

Observación

El informe se hizo hace 24 minutos, a las 04:00 UTC
Viento 2 kt con dirección variable
Temperatura 14°C
Humedad 94%
Presión 1023 hPa
Visibilidad: 2600 m
Cielo cubierto a una altura de 500 ft

METAR: LFBY 220400Z AUTO VRB02KT 2600 // OVC005 14/13 Q1023

Hora: 06:24 (04:24 UTC)


TAF: falta

Observaciones y pronósticos meteorológicos de más de 4000 aeropuertos (mensajes METAR y TAF).

Los puntos amarillos y rojos representan las estaciones disponibles.

Ponga el ratón en el punto deseado para ver el nombre de la estación.

Haga clic para ver las observaciones y los pronósticos meteorológicos.

Para cambiar el mapa : haga clic en los botones verdes con una cruz de color negro para hacer un zoom, en el botón verde con un guión para alejar o en las flechas verdes para mapas adyacentes.


METAR-TAF: